Laguna Niguel, California
Current Conditions -  °F | °C
As of 4:53 PM on Monday 22 Dec 2014 (Local Time) from KSNA Reporting Station
Clear Clear  
Wind Chill: 66°   Ceiling: Unl
Heat Index: 66°   Visibility: 7mi
Dew Point: 56°   Wind: 7mph
Humidity: 70%   Direction: 210°SSW
Pressure: 29.95"   Gusts: NA
Location:  33.56°N, 117.7°W
Report Text: KSNA 230053Z 21006KT 7SM CLR 19/13 A2995 RMK AO2 SLP141 T01890133
Loading
Personal Weather Stations






























Interactive Weather Map New forecast layout! Learn more

10-Day Weather Forecast

Advertisements
Track Severe Weather on mobile